sensor_id;sensor_type;location;lat;lon;timestamp;P1;durP1;ratioP1;P2;durP2;ratioP2
34060;SDS011;20336;-33.424;-70.638;2023-05-07T00:00:18;118.90;;;53.17;;
34060;SDS011;20336;-33.424;-70.638;2023-05-07T00:02:45;108.40;;;51.60;;
34060;SDS011;20336;-33.424;-70.638;2023-05-07T00:05:12;108.33;;;52.03;;
34060;SDS011;20336;-33.424;-70.638;2023-05-07T00:07:39;114.90;;;54.70;;
34060;SDS011;20336;-33.424;-70.638;2023-05-07T00:10:06;110.80;;;53.30;;
34060;SDS011;20336;-33.424;-70.638;2023-05-07T00:12:33;126.23;;;56.03;;
34060;SDS011;20336;-33.424;-70.638;2023-05-07T00:15:03;112.93;;;52.77;;
34060;SDS011;20336;-33.424;-70.638;2023-05-07T00:17:31;118.43;;;53.67;;
34060;SDS011;20336;-33.424;-70.638;2023-05-07T00:19:58;107.43;;;53.07;;
34060;SDS011;20336;-33.424;-70.638;2023-05-07T00:22:25;120.37;;;52.97;;
34060;SDS011;20336;-33.424;-70.638;2023-05-07T00:24:52;105.23;;;51.93;;
34060;SDS011;20336;-33.424;-70.638;2023-05-07T00:27:18;108.77;;;50.97;;
34060;SDS011;20336;-33.424;-70.638;2023-05-07T00:29:45;104.87;;;51.57;;
34060;SDS011;20336;-33.424;-70.638;2023-05-07T00:32:12;116.40;;;51.70;;
34060;SDS011;20336;-33.424;-70.638;2023-05-07T00:34:40;117.90;;;55.40;;
34060;SDS011;20336;-33.424;-70.638;2023-05-07T00:37:06;115.27;;;55.60;;
34060;SDS011;20336;-33.424;-70.638;2023-05-07T00:39:34;128.57;;;56.93;;
34060;SDS011;20336;-33.424;-70.638;2023-05-07T00:42:01;127.73;;;56.00;;
34060;SDS011;20336;-33.424;-70.638;2023-05-07T00:44:28;132.90;;;58.33;;
34060;SDS011;20336;-33.424;-70.638;2023-05-07T00:46:56;118.70;;;55.20;;
34060;SDS011;20336;-33.424;-70.638;2023-05-07T00:49:25;113.17;;;52.90;;
34060;SDS011;20336;-33.424;-70.638;2023-05-07T00:51:56;116.33;;;53.93;;
34060;SDS011;20336;-33.424;-70.638;2023-05-07T00:54:23;126.03;;;56.27;;
34060;SDS011;20336;-33.424;-70.638;2023-05-07T00:56:50;112.70;;;53.97;;
34060;SDS011;20336;-33.424;-70.638;2023-05-07T00:59:17;127.30;;;56.50;;
34060;SDS011;20336;-33.424;-70.638;2023-05-07T01:01:44;124.67;;;55.57;;
34060;SDS011;20336;-33.424;-70.638;2023-05-07T01:04:11;125.07;;;56.03;;
34060;SDS011;20336;-33.424;-70.638;2023-05-07T01:06:38;123.93;;;56.73;;
34060;SDS011;20336;-33.424;-70.638;2023-05-07T01:09:05;127.90;;;60.50;;
34060;SDS011;20336;-33.424;-70.638;2023-05-07T01:11:32;128.87;;;62.50;;
34060;SDS011;20336;-33.424;-70.638;2023-05-07T01:13:59;133.80;;;63.00;;
34060;SDS011;20336;-33.424;-70.638;2023-05-07T01:16:26;124.50;;;61.27;;
34060;SDS011;20336;-33.424;-70.638;2023-05-07T01:18:53;147.67;;;66.43;;
34060;SDS011;20336;-33.424;-70.638;2023-05-07T01:21:22;145.37;;;66.70;;
34060;SDS011;20336;-33.424;-70.638;2023-05-07T01:23:52;134.77;;;63.20;;
34060;SDS011;20336;-33.424;-70.638;2023-05-07T01:26:19;136.67;;;64.13;;
34060;SDS011;20336;-33.424;-70.638;2023-05-07T01:28:47;132.90;;;63.40;;
34060;SDS011;20336;-33.424;-70.638;2023-05-07T01:31:14;130.60;;;62.13;;
34060;SDS011;20336;-33.424;-70.638;2023-05-07T01:33:41;122.67;;;59.73;;
34060;SDS011;20336;-33.424;-70.638;2023-05-07T01:36:10;127.57;;;60.87;;
34060;SDS011;20336;-33.424;-70.638;2023-05-07T01:38:38;133.30;;;63.70;;
34060;SDS011;20336;-33.424;-70.638;2023-05-07T01:41:06;130.47;;;61.30;;
34060;SDS011;20336;-33.424;-70.638;2023-05-07T01:43:33;140.60;;;60.93;;
34060;SDS011;20336;-33.424;-70.638;2023-05-07T01:46:00;140.23;;;64.37;;
34060;SDS011;20336;-33.424;-70.638;2023-05-07T01:48:28;136.10;;;62.63;;
34060;SDS011;20336;-33.424;-70.638;2023-05-07T01:50:55;141.80;;;65.83;;
34060;SDS011;20336;-33.424;-70.638;2023-05-07T01:53:22;133.27;;;62.40;;
34060;SDS011;20336;-33.424;-70.638;2023-05-07T01:55:48;131.67;;;60.23;;
34060;SDS011;20336;-33.424;-70.638;2023-05-07T01:58:15;137.07;;;62.77;;
34060;SDS011;20336;-33.424;-70.638;2023-05-07T02:00:42;161.07;;;70.10;;
34060;SDS011;20336;-33.424;-70.638;2023-05-07T02:03:09;139.87;;;64.27;;
34060;SDS011;20336;-33.424;-70.638;2023-05-07T02:05:36;131.00;;;62.37;;
34060;SDS011;20336;-33.424;-70.638;2023-05-07T02:08:03;133.00;;;60.97;;
34060;SDS011;20336;-33.424;-70.638;2023-05-07T02:10:30;150.20;;;68.73;;
34060;SDS011;20336;-33.424;-70.638;2023-05-07T02:12:56;145.03;;;66.30;;
34060;SDS011;20336;-33.424;-70.638;2023-05-07T02:15:25;159.10;;;68.33;;
34060;SDS011;20336;-33.424;-70.638;2023-05-07T02:18:24;139.70;;;60.33;;
34060;SDS011;20336;-33.424;-70.638;2023-05-07T02:20:44;135.53;;;61.27;;
34060;SDS011;20336;-33.424;-70.638;2023-05-07T02:23:11;131.57;;;60.60;;
34060;SDS011;20336;-33.424;-70.638;2023-05-07T02:25:38;147.17;;;64.00;;
34060;SDS011;20336;-33.424;-70.638;2023-05-07T02:28:05;171.43;;;68.53;;
34060;SDS011;20336;-33.424;-70.638;2023-05-07T02:30:32;139.73;;;63.23;;
34060;SDS011;20336;-33.424;-70.638;2023-05-07T02:32:59;143.37;;;66.77;;
34060;SDS011;20336;-33.424;-70.638;2023-05-07T02:35:26;169.87;;;68.53;;
34060;SDS011;20336;-33.424;-70.638;2023-05-07T02:37:52;139.80;;;63.53;;
34060;SDS011;20336;-33.424;-70.638;2023-05-07T02:40:19;145.37;;;65.07;;
34060;SDS011;20336;-33.424;-70.638;2023-05-07T02:42:46;140.30;;;62.50;;
34060;SDS011;20336;-33.424;-70.638;2023-05-07T02:45:13;139.80;;;61.87;;
34060;SDS011;20336;-33.424;-70.638;2023-05-07T02:47:40;136.93;;;63.40;;
34060;SDS011;20336;-33.424;-70.638;2023-05-07T02:50:07;129.13;;;59.50;;
34060;SDS011;20336;-33.424;-70.638;2023-05-07T02:52:34;141.47;;;62.17;;
34060;SDS011;20336;-33.424;-70.638;2023-05-07T02:55:01;143.80;;;65.33;;
34060;SDS011;20336;-33.424;-70.638;2023-05-07T02:57:27;129.77;;;60.67;;
34060;SDS011;20336;-33.424;-70.638;2023-05-07T02:59:54;173.67;;;72.10;;
34060;SDS011;20336;-33.424;-70.638;2023-05-07T03:02:21;165.20;;;70.50;;
34060;SDS011;20336;-33.424;-70.638;2023-05-07T03:04:48;149.73;;;67.07;;
34060;SDS011;20336;-33.424;-70.638;2023-05-07T03:07:15;150.53;;;67.70;;
34060;SDS011;20336;-33.424;-70.638;2023-05-07T03:09:42;151.30;;;66.73;;
34060;SDS011;20336;-33.424;-70.638;2023-05-07T03:12:09;146.50;;;63.73;;
34060;SDS011;20336;-33.424;-70.638;2023-05-07T03:14:35;147.53;;;65.73;;
34060;SDS011;20336;-33.424;-70.638;2023-05-07T03:17:02;143.77;;;65.97;;
34060;SDS011;20336;-33.424;-70.638;2023-05-07T03:19:29;151.73;;;69.37;;
34060;SDS011;20336;-33.424;-70.638;2023-05-07T03:21:56;165.20;;;68.17;;
34060;SDS011;20336;-33.424;-70.638;2023-05-07T03:24:23;154.00;;;71.17;;
34060;SDS011;20336;-33.424;-70.638;2023-05-07T03:26:50;160.27;;;72.13;;
34060;SDS011;20336;-33.424;-70.638;2023-05-07T03:29:17;155.73;;;70.90;;
34060;SDS011;20336;-33.424;-70.638;2023-05-07T03:31:44;159.10;;;74.47;;
34060;SDS011;20336;-33.424;-70.638;2023-05-07T03:34:10;153.07;;;69.53;;
34060;SDS011;20336;-33.424;-70.638;2023-05-07T03:36:37;164.07;;;74.90;;
34060;SDS011;20336;-33.424;-70.638;2023-05-07T03:39:04;175.33;;;73.77;;
34060;SDS011;20336;-33.424;-70.638;2023-05-07T03:41:32;161.20;;;72.23;;
34060;SDS011;20336;-33.424;-70.638;2023-05-07T03:43:58;173.23;;;76.03;;
34060;SDS011;20336;-33.424;-70.638;2023-05-07T03:46:25;169.30;;;76.90;;
34060;SDS011;20336;-33.424;-70.638;2023-05-07T03:48:53;181.13;;;80.70;;
34060;SDS011;20336;-33.424;-70.638;2023-05-07T03:51:20;189.70;;;81.43;;
34060;SDS011;20336;-33.424;-70.638;2023-05-07T03:53:49;192.47;;;82.07;;
34060;SDS011;20336;-33.424;-70.638;2023-05-07T03:56:18;187.43;;;80.60;;
34060;SDS011;20336;-33.424;-70.638;2023-05-07T03:58:47;176.57;;;81.20;;
34060;SDS011;20336;-33.424;-70.638;2023-05-07T04:01:14;180.23;;;79.17;;
34060;SDS011;20336;-33.424;-70.638;2023-05-07T04:03:40;175.70;;;77.67;;
34060;SDS011;20336;-33.424;-70.638;2023-05-07T04:06:07;175.87;;;77.87;;
34060;SDS011;20336;-33.424;-70.638;2023-05-07T04:08:34;167.97;;;73.33;;
34060;SDS011;20336;-33.424;-70.638;2023-05-07T04:11:01;165.50;;;74.20;;
34060;SDS011;20336;-33.424;-70.638;2023-05-07T04:13:29;173.50;;;77.10;;
34060;SDS011;20336;-33.424;-70.638;2023-05-07T04:15:56;166.27;;;76.77;;
34060;SDS011;20336;-33.424;-70.638;2023-05-07T04:18:23;174.43;;;78.93;;
34060;SDS011;20336;-33.424;-70.638;2023-05-07T04:20:49;182.97;;;84.57;;
34060;SDS011;20336;-33.424;-70.638;2023-05-07T04:23:16;186.00;;;80.73;;
34060;SDS011;20336;-33.424;-70.638;2023-05-07T04:25:43;184.97;;;80.20;;
34060;SDS011;20336;-33.424;-70.638;2023-05-07T04:28:10;181.20;;;82.80;;
34060;SDS011;20336;-33.424;-70.638;2023-05-07T04:30:38;176.80;;;80.13;;
34060;SDS011;20336;-33.424;-70.638;2023-05-07T04:33:05;179.77;;;82.27;;
34060;SDS011;20336;-33.424;-70.638;2023-05-07T04:35:32;198.03;;;87.57;;
34060;SDS011;20336;-33.424;-70.638;2023-05-07T04:37:59;194.97;;;84.17;;
34060;SDS011;20336;-33.424;-70.638;2023-05-07T04:40:27;184.50;;;80.00;;
34060;SDS011;20336;-33.424;-70.638;2023-05-07T04:42:53;190.10;;;82.53;;
34060;SDS011;20336;-33.424;-70.638;2023-05-07T04:45:20;196.10;;;84.27;;
34060;SDS011;20336;-33.424;-70.638;2023-05-07T04:47:47;187.77;;;81.33;;
34060;SDS011;20336;-33.424;-70.638;2023-05-07T04:50:15;193.03;;;83.43;;
34060;SDS011;20336;-33.424;-70.638;2023-05-07T04:52:43;198.77;;;87.73;;
34060;SDS011;20336;-33.424;-70.638;2023-05-07T04:55:10;230.97;;;94.17;;
34060;SDS011;20336;-33.424;-70.638;2023-05-07T04:57:37;212.97;;;88.90;;
34060;SDS011;20336;-33.424;-70.638;2023-05-07T05:00:06;221.13;;;92.63;;
34060;SDS011;20336;-33.424;-70.638;2023-05-07T05:02:34;188.97;;;82.77;;
34060;SDS011;20336;-33.424;-70.638;2023-05-07T05:05:01;188.97;;;83.27;;
34060;SDS011;20336;-33.424;-70.638;2023-05-07T05:07:28;205.13;;;89.20;;
34060;SDS011;20336;-33.424;-70.638;2023-05-07T05:09:56;210.17;;;89.00;;
34060;SDS011;20336;-33.424;-70.638;2023-05-07T05:12:23;184.23;;;82.10;;
34060;SDS011;20336;-33.424;-70.638;2023-05-07T05:14:50;206.70;;;86.83;;
34060;SDS011;20336;-33.424;-70.638;2023-05-07T05:17:16;188.10;;;81.40;;
34060;SDS011;20336;-33.424;-70.638;2023-05-07T05:19:43;185.03;;;81.87;;
34060;SDS011;20336;-33.424;-70.638;2023-05-07T05:22:10;194.80;;;83.83;;
34060;SDS011;20336;-33.424;-70.638;2023-05-07T05:24:37;192.27;;;82.13;;
34060;SDS011;20336;-33.424;-70.638;2023-05-07T05:27:04;181.83;;;79.17;;
34060;SDS011;20336;-33.424;-70.638;2023-05-07T05:29:31;197.03;;;84.20;;
34060;SDS011;20336;-33.424;-70.638;2023-05-07T05:31:58;184.53;;;80.90;;
34060;SDS011;20336;-33.424;-70.638;2023-05-07T05:34:25;178.63;;;78.17;;
34060;SDS011;20336;-33.424;-70.638;2023-05-07T05:36:52;184.20;;;79.97;;
34060;SDS011;20336;-33.424;-70.638;2023-05-07T05:39:19;178.40;;;77.50;;
34060;SDS011;20336;-33.424;-70.638;2023-05-07T05:41:48;196.40;;;81.03;;
34060;SDS011;20336;-33.424;-70.638;2023-05-07T05:44:15;180.23;;;81.53;;
34060;SDS011;20336;-33.424;-70.638;2023-05-07T05:46:42;179.67;;;79.70;;
34060;SDS011;20336;-33.424;-70.638;2023-05-07T05:49:09;188.37;;;83.67;;
34060;SDS011;20336;-33.424;-70.638;2023-05-07T05:51:35;205.97;;;87.47;;
34060;SDS011;20336;-33.424;-70.638;2023-05-07T05:54:02;186.27;;;80.57;;
34060;SDS011;20336;-33.424;-70.638;2023-05-07T05:56:30;181.53;;;78.37;;
34060;SDS011;20336;-33.424;-70.638;2023-05-07T05:58:57;188.73;;;82.93;;
34060;SDS011;20336;-33.424;-70.638;2023-05-07T06:01:23;177.43;;;80.03;;
34060;SDS011;20336;-33.424;-70.638;2023-05-07T06:03:50;201.70;;;86.57;;
34060;SDS011;20336;-33.424;-70.638;2023-05-07T06:06:18;198.63;;;84.43;;
34060;SDS011;20336;-33.424;-70.638;2023-05-07T06:08:46;207.10;;;86.10;;
34060;SDS011;20336;-33.424;-70.638;2023-05-07T06:11:13;203.13;;;88.07;;
34060;SDS011;20336;-33.424;-70.638;2023-05-07T06:13:40;201.53;;;87.50;;
34060;SDS011;20336;-33.424;-70.638;2023-05-07T06:16:07;223.50;;;93.53;;
34060;SDS011;20336;-33.424;-70.638;2023-05-07T06:18:34;218.13;;;91.13;;
34060;SDS011;20336;-33.424;-70.638;2023-05-07T06:21:04;225.97;;;96.73;;
34060;SDS011;20336;-33.424;-70.638;2023-05-07T06:23:31;205.30;;;91.43;;
34060;SDS011;20336;-33.424;-70.638;2023-05-07T06:25:57;220.30;;;91.90;;
34060;SDS011;20336;-33.424;-70.638;2023-05-07T06:28:24;265.20;;;104.47;;
34060;SDS011;20336;-33.424;-70.638;2023-05-07T06:30:51;298.83;;;112.40;;
34060;SDS011;20336;-33.424;-70.638;2023-05-07T06:33:18;279.73;;;108.77;;
34060;SDS011;20336;-33.424;-70.638;2023-05-07T06:35:45;255.70;;;102.00;;
34060;SDS011;20336;-33.424;-70.638;2023-05-07T06:38:12;244.57;;;101.90;;
34060;SDS011;20336;-33.424;-70.638;2023-05-07T06:40:38;264.40;;;106.03;;
34060;SDS011;20336;-33.424;-70.638;2023-05-07T06:43:05;256.70;;;101.73;;
34060;SDS011;20336;-33.424;-70.638;2023-05-07T06:45:32;243.73;;;100.87;;
34060;SDS011;20336;-33.424;-70.638;2023-05-07T06:47:59;269.57;;;104.17;;
34060;SDS011;20336;-33.424;-70.638;2023-05-07T06:50:26;228.73;;;93.20;;
34060;SDS011;20336;-33.424;-70.638;2023-05-07T06:52:53;230.60;;;94.17;;
34060;SDS011;20336;-33.424;-70.638;2023-05-07T06:55:19;225.43;;;92.30;;
34060;SDS011;20336;-33.424;-70.638;2023-05-07T06:57:46;207.40;;;90.57;;
34060;SDS011;20336;-33.424;-70.638;2023-05-07T07:00:13;207.20;;;88.53;;
34060;SDS011;20336;-33.424;-70.638;2023-05-07T07:02:40;198.53;;;83.53;;
34060;SDS011;20336;-33.424;-70.638;2023-05-07T07:05:07;204.30;;;87.40;;
34060;SDS011;20336;-33.424;-70.638;2023-05-07T07:07:34;209.33;;;88.60;;
34060;SDS011;20336;-33.424;-70.638;2023-05-07T07:10:01;212.43;;;88.60;;
34060;SDS011;20336;-33.424;-70.638;2023-05-07T07:12:30;215.97;;;89.97;;
34060;SDS011;20336;-33.424;-70.638;2023-05-07T07:14:56;211.70;;;91.03;;
34060;SDS011;20336;-33.424;-70.638;2023-05-07T07:17:23;206.23;;;90.57;;
34060;SDS011;20336;-33.424;-70.638;2023-05-07T07:19:50;212.07;;;89.93;;
34060;SDS011;20336;-33.424;-70.638;2023-05-07T07:22:17;211.40;;;88.20;;
34060;SDS011;20336;-33.424;-70.638;2023-05-07T07:24:44;222.30;;;91.97;;
34060;SDS011;20336;-33.424;-70.638;2023-05-07T07:27:11;213.33;;;89.23;;
34060;SDS011;20336;-33.424;-70.638;2023-05-07T07:29:37;224.67;;;92.83;;
34060;SDS011;20336;-33.424;-70.638;2023-05-07T07:32:04;209.80;;;89.03;;
34060;SDS011;20336;-33.424;-70.638;2023-05-07T07:34:31;207.23;;;88.67;;
34060;SDS011;20336;-33.424;-70.638;2023-05-07T07:36:58;201.63;;;85.77;;
34060;SDS011;20336;-33.424;-70.638;2023-05-07T07:39:30;214.70;;;90.33;;
34060;SDS011;20336;-33.424;-70.638;2023-05-07T07:41:57;217.07;;;92.00;;
34060;SDS011;20336;-33.424;-70.638;2023-05-07T07:44:24;209.00;;;87.40;;
34060;SDS011;20336;-33.424;-70.638;2023-05-07T07:46:51;213.10;;;89.80;;
34060;SDS011;20336;-33.424;-70.638;2023-05-07T07:49:18;248.50;;;96.33;;
34060;SDS011;20336;-33.424;-70.638;2023-05-07T07:51:45;207.77;;;87.30;;
34060;SDS011;20336;-33.424;-70.638;2023-05-07T07:54:12;200.57;;;86.50;;
34060;SDS011;20336;-33.424;-70.638;2023-05-07T07:56:39;263.17;;;99.70;;
34060;SDS011;20336;-33.424;-70.638;2023-05-07T07:59:05;243.70;;;95.07;;
34060;SDS011;20336;-33.424;-70.638;2023-05-07T08:01:32;218.03;;;88.97;;
34060;SDS011;20336;-33.424;-70.638;2023-05-07T08:03:59;207.60;;;88.63;;
34060;SDS011;20336;-33.424;-70.638;2023-05-07T08:06:29;201.93;;;85.83;;
34060;SDS011;20336;-33.424;-70.638;2023-05-07T08:08:56;218.70;;;88.07;;
34060;SDS011;20336;-33.424;-70.638;2023-05-07T08:11:22;206.33;;;84.40;;
34060;SDS011;20336;-33.424;-70.638;2023-05-07T08:13:50;201.13;;;84.73;;
34060;SDS011;20336;-33.424;-70.638;2023-05-07T08:16:17;194.30;;;80.80;;
34060;SDS011;20336;-33.424;-70.638;2023-05-07T08:18:44;181.97;;;79.37;;
34060;SDS011;20336;-33.424;-70.638;2023-05-07T08:21:11;192.83;;;80.70;;
34060;SDS011;20336;-33.424;-70.638;2023-05-07T08:23:38;189.37;;;82.40;;
34060;SDS011;20336;-33.424;-70.638;2023-05-07T08:26:05;190.57;;;80.67;;
34060;SDS011;20336;-33.424;-70.638;2023-05-07T08:28:31;190.10;;;79.30;;
34060;SDS011;20336;-33.424;-70.638;2023-05-07T08:30:58;183.03;;;76.93;;
34060;SDS011;20336;-33.424;-70.638;2023-05-07T08:33:26;191.77;;;78.87;;
34060;SDS011;20336;-33.424;-70.638;2023-05-07T08:35:53;190.17;;;79.03;;
34060;SDS011;20336;-33.424;-70.638;2023-05-07T08:38:20;186.87;;;79.07;;
34060;SDS011;20336;-33.424;-70.638;2023-05-07T08:40:47;183.73;;;77.87;;
34060;SDS011;20336;-33.424;-70.638;2023-05-07T08:43:14;175.80;;;76.93;;
34060;SDS011;20336;-33.424;-70.638;2023-05-07T08:45:41;193.00;;;79.47;;
34060;SDS011;20336;-33.424;-70.638;2023-05-07T08:48:15;193.87;;;80.87;;
34060;SDS011;20336;-33.424;-70.638;2023-05-07T08:50:42;226.27;;;92.17;;
34060;SDS011;20336;-33.424;-70.638;2023-05-07T08:53:09;198.13;;;81.73;;
34060;SDS011;20336;-33.424;-70.638;2023-05-07T08:55:36;219.50;;;89.83;;
34060;SDS011;20336;-33.424;-70.638;2023-05-07T08:58:03;204.60;;;84.83;;
34060;SDS011;20336;-33.424;-70.638;2023-05-07T09:00:30;199.97;;;85.60;;
34060;SDS011;20336;-33.424;-70.638;2023-05-07T09:02:57;196.03;;;85.07;;
34060;SDS011;20336;-33.424;-70.638;2023-05-07T09:05:23;208.60;;;83.00;;
34060;SDS011;20336;-33.424;-70.638;2023-05-07T09:07:50;188.23;;;78.17;;
34060;SDS011;20336;-33.424;-70.638;2023-05-07T09:10:17;189.60;;;79.27;;
34060;SDS011;20336;-33.424;-70.638;2023-05-07T09:12:46;187.10;;;77.67;;
34060;SDS011;20336;-33.424;-70.638;2023-05-07T09:15:13;182.67;;;77.17;;
34060;SDS011;20336;-33.424;-70.638;2023-05-07T09:17:40;184.90;;;76.17;;
34060;SDS011;20336;-33.424;-70.638;2023-05-07T09:20:07;188.50;;;78.63;;
34060;SDS011;20336;-33.424;-70.638;2023-05-07T09:22:37;199.40;;;84.20;;
34060;SDS011;20336;-33.424;-70.638;2023-05-07T09:25:05;185.77;;;79.87;;
34060;SDS011;20336;-33.424;-70.638;2023-05-07T09:27:33;190.83;;;79.83;;
34060;SDS011;20336;-33.424;-70.638;2023-05-07T09:30:03;180.30;;;78.50;;
34060;SDS011;20336;-33.424;-70.638;2023-05-07T09:32:34;201.87;;;85.13;;
34060;SDS011;20336;-33.424;-70.638;2023-05-07T09:35:01;184.83;;;79.73;;
34060;SDS011;20336;-33.424;-70.638;2023-05-07T09:37:28;178.70;;;77.67;;
34060;SDS011;20336;-33.424;-70.638;2023-05-07T09:39:57;189.53;;;80.60;;
34060;SDS011;20336;-33.424;-70.638;2023-05-07T09:42:24;187.13;;;80.27;;
34060;SDS011;20336;-33.424;-70.638;2023-05-07T09:44:52;192.67;;;77.30;;
34060;SDS011;20336;-33.424;-70.638;2023-05-07T09:47:19;188.73;;;76.10;;
34060;SDS011;20336;-33.424;-70.638;2023-05-07T09:49:47;170.90;;;70.30;;
34060;SDS011;20336;-33.424;-70.638;2023-05-07T09:52:14;174.03;;;70.73;;
34060;SDS011;20336;-33.424;-70.638;2023-05-07T09:54:42;207.17;;;81.70;;
34060;SDS011;20336;-33.424;-70.638;2023-05-07T09:57:10;191.10;;;77.63;;
34060;SDS011;20336;-33.424;-70.638;2023-05-07T09:59:37;176.03;;;75.17;;
34060;SDS011;20336;-33.424;-70.638;2023-05-07T10:02:04;167.47;;;71.80;;
34060;SDS011;20336;-33.424;-70.638;2023-05-07T10:04:31;179.73;;;75.30;;
34060;SDS011;20336;-33.424;-70.638;2023-05-07T10:06:58;176.40;;;75.53;;
34060;SDS011;20336;-33.424;-70.638;2023-05-07T10:09:26;168.23;;;69.47;;
34060;SDS011;20336;-33.424;-70.638;2023-05-07T10:11:53;191.33;;;72.00;;
34060;SDS011;20336;-33.424;-70.638;2023-05-07T10:14:21;176.83;;;70.00;;
34060;SDS011;20336;-33.424;-70.638;2023-05-07T10:16:48;166.17;;;68.87;;
34060;SDS011;20336;-33.424;-70.638;2023-05-07T10:19:15;150.47;;;61.63;;
34060;SDS011;20336;-33.424;-70.638;2023-05-07T10:21:44;154.37;;;60.13;;
34060;SDS011;20336;-33.424;-70.638;2023-05-07T10:24:33;144.87;;;58.40;;
34060;SDS011;20336;-33.424;-70.638;2023-05-07T10:27:01;163.37;;;62.33;;
34060;SDS011;20336;-33.424;-70.638;2023-05-07T10:32:06;768.97;;;227.97;;
34060;SDS011;20336;-33.424;-70.638;2023-05-07T10:34:39;320.27;;;104.30;;
34060;SDS011;20336;-33.424;-70.638;2023-05-07T10:37:07;226.03;;;81.47;;
34060;SDS011;20336;-33.424;-70.638;2023-05-07T10:39:34;180.63;;;69.73;;
34060;SDS011;20336;-33.424;-70.638;2023-05-07T10:42:08;172.20;;;68.03;;
34060;SDS011;20336;-33.424;-70.638;2023-05-07T10:44:35;166.93;;;68.63;;
34060;SDS011;20336;-33.424;-70.638;2023-05-07T10:47:06;179.67;;;71.93;;
34060;SDS011;20336;-33.424;-70.638;2023-05-07T10:52:24;171.50;;;69.43;;
34060;SDS011;20336;-33.424;-70.638;2023-05-07T10:57:42;174.63;;;71.33;;
34060;SDS011;20336;-33.424;-70.638;2023-05-07T11:05:28;181.63;;;73.07;;
34060;SDS011;20336;-33.424;-70.638;2023-05-07T11:07:59;173.13;;;70.30;;
34060;SDS011;20336;-33.424;-70.638;2023-05-07T11:13:11;208.27;;;80.43;;
34060;SDS011;20336;-33.424;-70.638;2023-05-07T11:15:39;177.43;;;76.57;;
34060;SDS011;20336;-33.424;-70.638;2023-05-07T11:18:08;184.20;;;78.67;;
34060;SDS011;20336;-33.424;-70.638;2023-05-07T11:26:06;207.07;;;81.17;;
34060;SDS011;20336;-33.424;-70.638;2023-05-07T11:28:36;208.97;;;86.90;;
34060;SDS011;20336;-33.424;-70.638;2023-05-07T11:31:03;211.23;;;86.73;;
34060;SDS011;20336;-33.424;-70.638;2023-05-07T11:33:31;230.03;;;88.17;;
34060;SDS011;20336;-33.424;-70.638;2023-05-07T11:35:58;235.57;;;90.80;;
34060;SDS011;20336;-33.424;-70.638;2023-05-07T11:38:25;227.43;;;91.27;;
34060;SDS011;20336;-33.424;-70.638;2023-05-07T11:40:53;211.60;;;86.23;;
34060;SDS011;20336;-33.424;-70.638;2023-05-07T11:43:20;220.83;;;86.90;;
34060;SDS011;20336;-33.424;-70.638;2023-05-07T11:45:48;221.47;;;85.43;;
34060;SDS011;20336;-33.424;-70.638;2023-05-07T11:48:15;209.40;;;85.20;;
34060;SDS011;20336;-33.424;-70.638;2023-05-07T11:53:19;220.40;;;86.83;;
34060;SDS011;20336;-33.424;-70.638;2023-05-07T11:55:46;208.90;;;84.80;;
34060;SDS011;20336;-33.424;-70.638;2023-05-07T11:58:15;212.83;;;82.93;;
34060;SDS011;20336;-33.424;-70.638;2023-05-07T12:00:50;193.97;;;78.00;;
34060;SDS011;20336;-33.424;-70.638;2023-05-07T12:03:17;196.97;;;81.83;;
34060;SDS011;20336;-33.424;-70.638;2023-05-07T12:05:47;203.07;;;80.23;;
34060;SDS011;20336;-33.424;-70.638;2023-05-07T12:08:14;226.13;;;85.13;;
34060;SDS011;20336;-33.424;-70.638;2023-05-07T12:10:41;202.70;;;80.10;;
34060;SDS011;20336;-33.424;-70.638;2023-05-07T12:13:18;213.00;;;85.10;;
34060;SDS011;20336;-33.424;-70.638;2023-05-07T12:15:45;201.37;;;80.77;;
34060;SDS011;20336;-33.424;-70.638;2023-05-07T12:18:12;197.57;;;80.67;;
34060;SDS011;20336;-33.424;-70.638;2023-05-07T12:20:39;231.57;;;90.43;;
34060;SDS011;20336;-33.424;-70.638;2023-05-07T12:23:07;201.80;;;81.70;;
34060;SDS011;20336;-33.424;-70.638;2023-05-07T12:25:37;206.33;;;81.50;;
34060;SDS011;20336;-33.424;-70.638;2023-05-07T12:28:05;204.23;;;85.47;;
34060;SDS011;20336;-33.424;-70.638;2023-05-07T12:30:36;209.50;;;85.17;;
34060;SDS011;20336;-33.424;-70.638;2023-05-07T12:33:03;208.13;;;84.87;;
34060;SDS011;20336;-33.424;-70.638;2023-05-07T12:35:30;249.23;;;96.70;;
34060;SDS011;20336;-33.424;-70.638;2023-05-07T12:37:58;250.00;;;95.00;;
34060;SDS011;20336;-33.424;-70.638;2023-05-07T12:40:39;238.80;;;92.00;;
34060;SDS011;20336;-33.424;-70.638;2023-05-07T12:43:06;230.90;;;91.90;;
34060;SDS011;20336;-33.424;-70.638;2023-05-07T12:45:36;202.17;;;86.13;;
34060;SDS011;20336;-33.424;-70.638;2023-05-07T12:48:06;201.30;;;85.37;;
34060;SDS011;20336;-33.424;-70.638;2023-05-07T12:50:36;197.40;;;85.80;;
34060;SDS011;20336;-33.424;-70.638;2023-05-07T12:53:03;196.80;;;86.10;;
34060;SDS011;20336;-33.424;-70.638;2023-05-07T12:55:31;193.07;;;83.93;;
34060;SDS011;20336;-33.424;-70.638;2023-05-07T12:58:00;250.23;;;99.43;;
34060;SDS011;20336;-33.424;-70.638;2023-05-07T13:00:37;225.13;;;93.00;;
34060;SDS011;20336;-33.424;-70.638;2023-05-07T13:03:04;203.87;;;89.83;;
34060;SDS011;20336;-33.424;-70.638;2023-05-07T13:05:33;232.90;;;96.00;;
34060;SDS011;20336;-33.424;-70.638;2023-05-07T13:08:00;202.60;;;87.27;;
34060;SDS011;20336;-33.424;-70.638;2023-05-07T13:10:27;200.93;;;87.50;;
34060;SDS011;20336;-33.424;-70.638;2023-05-07T13:12:54;207.27;;;90.10;;
34060;SDS011;20336;-33.424;-70.638;2023-05-07T13:15:21;195.47;;;86.13;;
34060;SDS011;20336;-33.424;-70.638;2023-05-07T13:17:48;205.20;;;88.00;;
34060;SDS011;20336;-33.424;-70.638;2023-05-07T13:20:15;195.63;;;83.80;;
34060;SDS011;20336;-33.424;-70.638;2023-05-07T13:22:42;193.60;;;84.03;;
34060;SDS011;20336;-33.424;-70.638;2023-05-07T13:25:09;183.67;;;83.80;;
34060;SDS011;20336;-33.424;-70.638;2023-05-07T13:27:36;180.83;;;81.80;;
34060;SDS011;20336;-33.424;-70.638;2023-05-07T13:30:03;182.10;;;85.43;;
34060;SDS011;20336;-33.424;-70.638;2023-05-07T13:32:30;190.33;;;81.87;;
34060;SDS011;20336;-33.424;-70.638;2023-05-07T13:34:58;193.50;;;85.53;;
34060;SDS011;20336;-33.424;-70.638;2023-05-07T13:37:24;174.53;;;79.80;;
34060;SDS011;20336;-33.424;-70.638;2023-05-07T13:39:51;182.03;;;83.70;;
34060;SDS011;20336;-33.424;-70.638;2023-05-07T13:42:18;181.40;;;83.90;;
34060;SDS011;20336;-33.424;-70.638;2023-05-07T13:44:45;179.20;;;81.90;;
34060;SDS011;20336;-33.424;-70.638;2023-05-07T13:47:12;185.47;;;82.73;;
34060;SDS011;20336;-33.424;-70.638;2023-05-07T13:49:39;169.53;;;81.50;;
34060;SDS011;20336;-33.424;-70.638;2023-05-07T13:52:05;181.43;;;83.70;;
34060;SDS011;20336;-33.424;-70.638;2023-05-07T13:54:32;180.93;;;84.23;;
34060;SDS011;20336;-33.424;-70.638;2023-05-07T13:56:59;193.90;;;85.97;;
34060;SDS011;20336;-33.424;-70.638;2023-05-07T13:59:27;173.23;;;72.73;;